sensor_id;sensor_type;location;lat;lon;timestamp;pressure;altitude;pressure_sealevel;temperature;humidity
4528;BME280;62320;51.520;6.818;2024-03-29T00:01:49;98864.44;;;8.98;100.00
4528;BME280;62320;51.520;6.818;2024-03-29T00:11:50;98861.09;;;8.94;100.00
4528;BME280;62320;51.520;6.818;2024-03-29T00:21:50;98845.63;;;8.94;100.00
4528;BME280;62320;51.520;6.818;2024-03-29T00:31:51;98815.44;;;8.99;100.00
4528;BME280;62320;51.520;6.818;2024-03-29T00:41:51;98845.88;;;8.84;100.00
4528;BME280;62320;51.520;6.818;2024-03-29T00:51:51;98869.00;;;8.87;100.00
4528;BME280;62320;51.520;6.818;2024-03-29T01:01:53;98858.66;;;8.88;100.00
4528;BME280;62320;51.520;6.818;2024-03-29T01:11:53;98858.53;;;8.93;100.00
4528;BME280;62320;51.520;6.818;2024-03-29T01:21:54;98873.34;;;8.85;100.00
4528;BME280;62320;51.520;6.818;2024-03-29T01:31:54;98879.34;;;8.85;100.00
4528;BME280;62320;51.520;6.818;2024-03-29T01:41:55;98859.41;;;8.93;100.00
4528;BME280;62320;51.520;6.818;2024-03-29T01:51:56;98860.19;;;8.95;100.00
4528;BME280;62320;51.520;6.818;2024-03-29T02:01:57;98858.41;;;8.99;100.00
4528;BME280;62320;51.520;6.818;2024-03-29T02:11:59;98812.66;;;9.08;100.00
4528;BME280;62320;51.520;6.818;2024-03-29T02:22:00;98801.88;;;9.25;100.00
4528;BME280;62320;51.520;6.818;2024-03-29T02:32:03;98808.88;;;9.21;100.00
4528;BME280;62320;51.520;6.818;2024-03-29T02:42:04;98818.75;;;9.38;100.00
4528;BME280;62320;51.520;6.818;2024-03-29T02:52:05;98816.97;;;9.40;100.00
4528;BME280;62320;51.520;6.818;2024-03-29T03:02:05;98837.38;;;9.49;100.00
4528;BME280;62320;51.520;6.818;2024-03-29T03:12:06;98842.34;;;9.55;100.00
4528;BME280;62320;51.520;6.818;2024-03-29T03:22:06;98828.78;;;9.49;100.00
4528;BME280;62320;51.520;6.818;2024-03-29T03:32:07;98824.78;;;9.37;100.00
4528;BME280;62320;51.520;6.818;2024-03-29T03:42:07;98811.00;;;9.38;100.00
4528;BME280;62320;51.520;6.818;2024-03-29T03:52:08;98823.28;;;9.28;100.00
4528;BME280;62320;51.520;6.818;2024-03-29T04:02:08;98814.59;;;9.32;100.00
4528;BME280;62320;51.520;6.818;2024-03-29T04:12:10;98836.19;;;9.27;100.00
4528;BME280;62320;51.520;6.818;2024-03-29T04:22:10;98829.50;;;9.21;100.00
4528;BME280;62320;51.520;6.818;2024-03-29T04:32:11;98855.41;;;9.15;100.00
4528;BME280;62320;51.520;6.818;2024-03-29T04:42:11;98864.97;;;9.12;100.00
4528;BME280;62320;51.520;6.818;2024-03-29T04:52:12;98868.69;;;9.00;100.00
4528;BME280;62320;51.520;6.818;2024-03-29T05:02:13;98861.06;;;8.96;100.00
4528;BME280;62320;51.520;6.818;2024-03-29T05:12:14;98860.41;;;8.86;100.00
4528;BME280;62320;51.520;6.818;2024-03-29T05:22:14;98845.16;;;8.79;100.00
4528;BME280;62320;51.520;6.818;2024-03-29T05:32:15;98826.91;;;8.86;100.00
4528;BME280;62320;51.520;6.818;2024-03-29T05:42:15;98821.75;;;8.88;100.00
4528;BME280;62320;51.520;6.818;2024-03-29T05:52:16;98818.81;;;8.68;100.00
4528;BME280;62320;51.520;6.818;2024-03-29T06:02:17;98812.91;;;8.63;100.00
4528;BME280;62320;51.520;6.818;2024-03-29T06:12:17;98823.22;;;8.63;100.00
4528;BME280;62320;51.520;6.818;2024-03-29T06:22:18;98805.31;;;8.56;100.00
4528;BME280;62320;51.520;6.818;2024-03-29T06:32:19;98801.69;;;8.65;100.00
4528;BME280;62320;51.520;6.818;2024-03-29T06:42:19;98815.38;;;8.67;100.00
4528;BME280;62320;51.520;6.818;2024-03-29T06:52:20;98789.69;;;8.64;100.00
4528;BME280;62320;51.520;6.818;2024-03-29T07:02:20;98781.19;;;8.60;100.00
4528;BME280;62320;51.520;6.818;2024-03-29T07:12:21;98788.00;;;8.63;100.00
4528;BME280;62320;51.520;6.818;2024-03-29T07:22:21;98797.44;;;8.63;100.00
4528;BME280;62320;51.520;6.818;2024-03-29T07:32:22;98794.66;;;8.70;100.00
4528;BME280;62320;51.520;6.818;2024-03-29T07:42:22;98814.31;;;8.76;100.00
4528;BME280;62320;51.520;6.818;2024-03-29T07:52:23;98837.22;;;8.88;100.00
4528;BME280;62320;51.520;6.818;2024-03-29T08:02:24;98843.72;;;9.02;100.00
4528;BME280;62320;51.520;6.818;2024-03-29T08:12:25;98826.81;;;9.24;100.00
4528;BME280;62320;51.520;6.818;2024-03-29T08:22:25;98827.91;;;9.48;100.00
4528;BME280;62320;51.520;6.818;2024-03-29T08:32:26;98820.56;;;9.96;100.00
4528;BME280;62320;51.520;6.818;2024-03-29T08:42:26;98854.22;;;10.24;100.00
4528;BME280;62320;51.520;6.818;2024-03-29T08:52:27;98843.69;;;10.30;100.00
4528;BME280;62320;51.520;6.818;2024-03-29T09:02:27;98874.66;;;10.31;100.00
4528;BME280;62320;51.520;6.818;2024-03-29T09:12:28;98881.69;;;10.26;100.00
4528;BME280;62320;51.520;6.818;2024-03-29T09:22:28;98901.63;;;10.21;100.00
4528;BME280;62320;51.520;6.818;2024-03-29T09:32:29;98884.75;;;10.39;100.00
4528;BME280;62320;51.520;6.818;2024-03-29T09:42:32;98895.72;;;10.47;100.00
4528;BME280;62320;51.520;6.818;2024-03-29T09:52:34;98887.50;;;10.62;100.00
4528;BME280;62320;51.520;6.818;2024-03-29T10:02:35;98892.47;;;10.68;100.00
4528;BME280;62320;51.520;6.818;2024-03-29T10:12:36;98901.84;;;11.00;100.00
4528;BME280;62320;51.520;6.818;2024-03-29T10:22:41;98926.66;;;11.31;100.00
4528;BME280;62320;51.520;6.818;2024-03-29T10:32:43;98940.47;;;11.58;100.00
4528;BME280;62320;51.520;6.818;2024-03-29T10:42:45;98933.28;;;11.66;100.00
4528;BME280;62320;51.520;6.818;2024-03-29T10:52:48;98934.00;;;11.96;100.00
4528;BME280;62320;51.520;6.818;2024-03-29T11:13:19;98917.94;;;12.11;100.00
4528;BME280;62320;51.520;6.818;2024-03-29T11:23:26;98936.81;;;12.14;100.00
4528;BME280;62320;51.520;6.818;2024-03-29T11:43:31;98920.81;;;12.73;100.00
4528;BME280;62320;51.520;6.818;2024-03-29T11:53:32;98930.09;;;13.23;100.00
4528;BME280;62320;51.520;6.818;2024-03-29T12:03:38;98983.94;;;13.40;100.00
4528;BME280;62320;51.520;6.818;2024-03-29T12:13:38;98987.44;;;13.39;100.00
4528;BME280;62320;51.520;6.818;2024-03-29T12:23:47;98984.28;;;13.52;100.00
4528;BME280;62320;51.520;6.818;2024-03-29T12:33:53;98979.69;;;13.79;100.00
4528;BME280;62320;51.520;6.818;2024-03-29T12:43:54;98982.97;;;13.84;100.00
4528;BME280;62320;51.520;6.818;2024-03-29T12:53:55;98992.97;;;14.13;100.00
4528;BME280;62320;51.520;6.818;2024-03-29T13:04:00;98991.84;;;14.59;100.00
4528;BME280;62320;51.520;6.818;2024-03-29T13:14:01;98992.16;;;14.33;100.00
4528;BME280;62320;51.520;6.818;2024-03-29T13:24:02;98999.00;;;14.54;100.00
4528;BME280;62320;51.520;6.818;2024-03-29T13:34:02;99004.53;;;14.67;100.00
4528;BME280;62320;51.520;6.818;2024-03-29T13:44:12;99023.91;;;14.60;100.00
4528;BME280;62320;51.520;6.818;2024-03-29T13:54:17;99026.16;;;14.87;100.00
4528;BME280;62320;51.520;6.818;2024-03-29T14:04:18;99020.38;;;14.61;100.00
4528;BME280;62320;51.520;6.818;2024-03-29T14:14:18;99002.56;;;14.90;100.00
4528;BME280;62320;51.520;6.818;2024-03-29T14:24:19;98998.44;;;15.05;100.00
4528;BME280;62320;51.520;6.818;2024-03-29T14:34:19;99022.75;;;15.23;100.00
4528;BME280;62320;51.520;6.818;2024-03-29T14:44:20;99032.66;;;15.33;100.00
4528;BME280;62320;51.520;6.818;2024-03-29T14:54:21;99029.38;;;15.11;100.00
4528;BME280;62320;51.520;6.818;2024-03-29T15:04:22;99026.19;;;15.42;100.00
4528;BME280;62320;51.520;6.818;2024-03-29T15:14:22;99023.09;;;15.34;100.00
4528;BME280;62320;51.520;6.818;2024-03-29T15:24:23;99018.75;;;15.16;100.00
4528;BME280;62320;51.520;6.818;2024-03-29T15:34:23;99027.44;;;15.33;100.00
4528;BME280;62320;51.520;6.818;2024-03-29T15:44:24;99021.69;;;15.27;100.00
4528;BME280;62320;51.520;6.818;2024-03-29T15:54:25;99038.19;;;15.46;100.00
4528;BME280;62320;51.520;6.818;2024-03-29T16:04:27;99053.28;;;15.38;100.00
4528;BME280;62320;51.520;6.818;2024-03-29T16:14:28;99068.78;;;15.22;100.00
4528;BME280;62320;51.520;6.818;2024-03-29T16:24:30;99089.97;;;15.15;100.00
4528;BME280;62320;51.520;6.818;2024-03-29T16:34:31;99082.06;;;14.97;100.00
4528;BME280;62320;51.520;6.818;2024-03-29T16:44:31;99103.19;;;14.71;100.00
4528;BME280;62320;51.520;6.818;2024-03-29T16:54:32;99096.66;;;14.61;100.00
4528;BME280;62320;51.520;6.818;2024-03-29T17:04:33;99100.50;;;14.53;100.00
4528;BME280;62320;51.520;6.818;2024-03-29T17:14:34;99089.06;;;14.37;100.00
4528;BME280;62320;51.520;6.818;2024-03-29T17:24:35;99109.28;;;14.30;100.00
4528;BME280;62320;51.520;6.818;2024-03-29T17:34:35;99095.66;;;14.23;100.00
4528;BME280;62320;51.520;6.818;2024-03-29T17:44:36;99102.91;;;14.15;100.00
4528;BME280;62320;51.520;6.818;2024-03-29T17:54:36;99106.75;;;14.07;100.00
4528;BME280;62320;51.520;6.818;2024-03-29T18:04:37;99139.41;;;13.92;100.00
4528;BME280;62320;51.520;6.818;2024-03-29T18:14:37;99138.84;;;13.84;100.00
4528;BME280;62320;51.520;6.818;2024-03-29T18:24:38;99129.59;;;13.77;100.00
4528;BME280;62320;51.520;6.818;2024-03-29T18:34:38;99147.28;;;13.68;100.00
4528;BME280;62320;51.520;6.818;2024-03-29T18:44:39;99170.81;;;13.63;100.00
4528;BME280;62320;51.520;6.818;2024-03-29T18:54:40;99177.28;;;13.53;100.00
4528;BME280;62320;51.520;6.818;2024-03-29T19:04:41;99186.38;;;13.41;100.00
4528;BME280;62320;51.520;6.818;2024-03-29T19:14:41;99195.28;;;13.34;100.00
4528;BME280;62320;51.520;6.818;2024-03-29T19:24:42;99184.34;;;13.26;100.00
4528;BME280;62320;51.520;6.818;2024-03-29T19:34:45;99203.88;;;13.12;100.00
4528;BME280;62320;51.520;6.818;2024-03-29T19:44:46;99205.63;;;13.11;100.00
4528;BME280;62320;51.520;6.818;2024-03-29T19:54:47;99212.91;;;13.00;100.00
4528;BME280;62320;51.520;6.818;2024-03-29T20:04:47;99223.59;;;12.91;100.00
4528;BME280;62320;51.520;6.818;2024-03-29T20:14:48;99238.53;;;12.84;100.00
4528;BME280;62320;51.520;6.818;2024-03-29T20:24:49;99267.56;;;12.69;100.00
4528;BME280;62320;51.520;6.818;2024-03-29T20:34:49;99273.06;;;12.59;100.00
4528;BME280;62320;51.520;6.818;2024-03-29T20:44:50;99252.31;;;12.60;100.00
4528;BME280;62320;51.520;6.818;2024-03-29T20:54:53;99242.47;;;12.44;100.00
4528;BME280;62320;51.520;6.818;2024-03-29T21:04:54;99252.22;;;12.36;100.00
4528;BME280;62320;51.520;6.818;2024-03-29T21:15:13;99247.28;;;12.28;100.00
4528;BME280;62320;51.520;6.818;2024-03-29T21:25:17;99252.47;;;12.28;100.00
4528;BME280;62320;51.520;6.818;2024-03-29T21:35:17;99268.19;;;12.22;100.00
4528;BME280;62320;51.520;6.818;2024-03-29T21:45:20;99298.47;;;12.20;100.00
4528;BME280;62320;51.520;6.818;2024-03-29T21:55:20;99328.50;;;12.27;100.00
4528;BME280;62320;51.520;6.818;2024-03-29T22:05:21;99344.38;;;12.16;100.00
4528;BME280;62320;51.520;6.818;2024-03-29T22:15:22;99363.50;;;12.12;100.00
4528;BME280;62320;51.520;6.818;2024-03-29T22:25:22;99352.28;;;12.12;100.00
4528;BME280;62320;51.520;6.818;2024-03-29T22:35:23;99363.72;;;12.05;100.00
4528;BME280;62320;51.520;6.818;2024-03-29T22:45:23;99371.56;;;12.02;100.00
4528;BME280;62320;51.520;6.818;2024-03-29T22:55:24;99383.81;;;11.97;100.00
4528;BME280;62320;51.520;6.818;2024-03-29T23:05:25;99377.25;;;11.84;100.00
4528;BME280;62320;51.520;6.818;2024-03-29T23:15:28;99364.47;;;11.78;100.00
4528;BME280;62320;51.520;6.818;2024-03-29T23:25:28;99382.66;;;11.76;100.00
4528;BME280;62320;51.520;6.818;2024-03-29T23:35:29;99367.94;;;11.78;100.00
4528;BME280;62320;51.520;6.818;2024-03-29T23:45:29;99355.97;;;11.74;100.00
4528;BME280;62320;51.520;6.818;2024-03-29T23:55:30;99344.06;;;11.67;100.00
